Time;durP1;ratioP1;P1;durP2;ratioP2;P2;SDS_P1;SDS_P2;PMS_P1;PMS_P2;Temp;Humidity;BMP_temperature;BMP_pressure;BME280_temperature;BME280_humidity;BME280_pressure;Samples;Min_cycle;Max_cycle;Signal;HPM_P1;HPM_P2
2022/04/19 00:00:21;;;;;;;8.80;5.50;;;8.70;16.90;;;;;;5073953;28;20208;-60
2022/04/19 00:02:48;;;;;;;8.10;5.57;;;8.60;17.90;;;;;;5073689;28;20582;-58
2022/04/19 00:05:14;;;;;;;8.83;4.80;;;8.60;17.70;;;;;;5073871;28;20213;-57
2022/04/19 00:07:42;;;;;;;7.70;5.50;;;8.60;18.50;;;;;;5073550;28;20576;-59
2022/04/19 00:10:09;;;;;;;7.70;5.67;;;8.50;18.20;;;;;;5073181;28;20208;-59
2022/04/19 00:12:36;;;;;;;9.07;5.17;;;8.50;18.50;;;;;;5073570;28;20213;-60
2022/04/19 00:15:05;;;;;;;6.70;5.13;;;8.50;19.60;;;;;;5073438;28;20212;-59
2022/04/19 00:17:32;;;;;;;7.80;5.73;;;8.40;19.70;;;;;;5073194;28;20215;-60
2022/04/19 00:19:59;;;;;;;6.87;5.20;;;8.40;20.40;;;;;;5073189;28;20799;-61
2022/04/19 00:22:27;;;;;;;8.40;5.67;;;8.30;21.60;;;;;;5073267;28;20296;-60
2022/04/19 00:24:54;;;;;;;6.53;5.10;;;8.30;22.20;;;;;;5072864;28;20212;-58
2022/04/19 00:27:21;;;;;;;12.67;5.83;;;8.20;22.50;;;;;;5073039;28;20209;-60
2022/04/19 00:29:49;;;;;;;9.77;5.53;;;8.20;23.00;;;;;;5073314;28;20216;-58
2022/04/19 00:32:17;;;;;;;9.57;5.33;;;8.20;23.30;;;;;;5073281;28;20692;-60
2022/04/19 00:34:44;;;;;;;8.50;5.60;;;8.10;24.30;;;;;;5073091;28;20209;-60
2022/04/19 00:37:11;;;;;;;10.97;5.80;;;8.10;24.10;;;;;;5071313;28;20242;-60
2022/04/19 00:39:38;;;;;;;7.90;5.40;;;8.10;24.40;;;;;;5072632;28;20228;-60
2022/04/19 00:42:07;;;;;;;6.83;4.70;;;8.10;24.50;;;;;;5072870;28;20220;-59
2022/04/19 00:44:37;;;;;;;9.07;5.63;;;8.00;24.40;;;;;;5072954;28;20209;-60
2022/04/19 00:47:07;;;;;;;5.90;4.50;;;8.00;25.60;;;;;;5072350;28;20212;-60
2022/04/19 00:49:36;;;;;;;7.10;5.43;;;7.90;26.70;;;;;;5072752;28;20307;-60
2022/04/19 00:52:04;;;;;;;8.70;5.47;;;7.90;26.70;;;;;;5072675;28;20211;-60
2022/04/19 00:54:31;;;;;;;9.97;5.10;;;7.90;27.50;;;;;;5072652;28;20279;-60
2022/04/19 00:56:58;;;;;;;7.43;5.37;;;7.80;27.30;;;;;;5072485;28;20206;-58
2022/04/19 00:59:25;;;;;;;10.33;5.53;;;7.80;27.70;;;;;;5072515;28;20227;-59
2022/04/19 01:01:52;;;;;;;8.57;5.27;;;7.80;28.40;;;;;;5072413;28;20619;-60
2022/04/19 01:04:19;;;;;;;10.27;6.33;;;7.80;29.00;;;;;;5072205;28;20211;-60
2022/04/19 01:06:47;;;;;;;8.27;5.10;;;7.70;29.60;;;;;;5072031;28;20644;-58
2022/04/19 01:09:14;;;;;;;8.87;5.50;;;7.70;44.50;;;;;;5072535;28;20226;-60
2022/04/19 01:14:27;;;;;;;9.67;5.40;;;7.70;29.60;;;;;;5072588;28;20255;-59
2022/04/19 01:16:54;;;;;;;6.77;4.87;;;7.70;30.90;;;;;;5072016;28;20242;-60
2022/04/19 01:19:22;;;;;;;6.60;4.63;;;7.60;32.60;;;;;;5074584;28;20285;-60
2022/04/19 01:21:51;;;;;;;7.23;4.63;;;7.60;33.40;;;;;;5074108;28;20215;-60
2022/04/19 01:24:19;;;;;;;8.90;4.93;;;7.50;34.60;;;;;;5073501;28;20230;-61
2022/04/19 01:26:47;;;;;;;7.93;5.07;;;7.50;35.60;;;;;;5071720;28;20261;-60
2022/04/19 01:29:15;;;;;;;8.87;4.90;;;7.40;36.20;;;;;;5071951;28;20242;-60
2022/04/19 01:31:43;;;;;;;6.43;4.80;;;7.30;37.50;;;;;;5072334;28;20213;-60
2022/04/19 01:34:10;;;;;;;8.10;5.10;;;7.20;41.00;;;;;;5071839;28;20262;-60
2022/04/19 01:36:39;;;;;;;8.13;5.37;;;7.20;44.20;;;;;;5071785;28;20205;-61
2022/04/19 01:39:08;;;;;;;8.13;5.13;;;7.20;47.80;;;;;;5071496;28;20229;-59
2022/04/19 01:41:36;;;;;;;9.10;5.37;;;7.10;51.90;;;;;;5071896;28;20276;-59
2022/04/19 01:44:05;;;;;;;8.17;4.97;;;7.10;55.20;;;;;;5071621;28;20705;-61
2022/04/19 01:46:32;;;;;;;6.03;4.70;;;7.10;56.60;;;;;;5071520;28;20212;-60
2022/04/19 01:48:59;;;;;;;8.70;5.20;;;7.00;56.70;;;;;;5071273;28;20290;-60
2022/04/19 01:51:26;;;;;;;6.93;4.90;;;7.00;58.30;;;;;;5071897;28;20209;-60
2022/04/19 01:53:53;;;;;;;6.30;4.30;;;6.90;58.60;;;;;;5071785;28;20202;-61
2022/04/19 01:56:21;;;;;;;7.77;5.43;;;6.90;59.90;;;;;;5071287;28;20210;-60
2022/04/19 01:58:48;;;;;;;8.23;4.57;;;6.90;61.70;;;;;;5071326;28;20237;-59
2022/04/19 02:01:15;;;;;;;7.73;5.07;;;6.90;62.70;;;;;;5071589;28;20302;-61
2022/04/19 02:03:42;;;;;;;10.07;5.67;;;6.80;62.50;;;;;;5072173;28;20278;-60
2022/04/19 02:06:10;;;;;;;8.47;5.13;;;6.80;64.50;;;;;;5070934;28;20718;-60
2022/04/19 02:08:37;;;;;;;10.07;5.33;;;6.80;66.70;;;;;;5071587;28;20643;-61
2022/04/19 02:11:04;;;;;;;7.53;4.83;;;6.80;69.00;;;;;;5071274;28;20560;-60
2022/04/19 02:13:33;;;;;;;7.13;4.60;;;6.70;70.70;;;;;;5071346;28;20633;-59
2022/04/19 02:15:59;;;;;;;7.83;5.00;;;6.70;72.90;;;;;;5070983;28;20266;-60
2022/04/19 02:18:26;;;;;;;7.23;4.80;;;6.70;75.90;;;;;;5071312;28;20231;-59
2022/04/19 02:20:53;;;;;;;7.17;4.47;;;6.70;81.90;;;;;;5071259;28;20235;-59
2022/04/19 02:23:20;;;;;;;10.80;5.60;;;6.70;89.50;;;;;;5071004;28;20221;-60
2022/04/19 02:25:51;;;;;;;8.33;5.20;;;6.60;93.20;;;;;;5071259;28;20201;-60
2022/04/19 02:28:17;;;;;;;9.00;4.83;;;6.60;97.70;;;;;;5071220;28;20231;-60
2022/04/19 02:30:46;;;;;;;7.70;5.03;;;6.60;99.00;;;;;;5071019;28;20278;-60
2022/04/19 02:33:12;;;;;;;6.53;4.70;;;6.50;99.20;;;;;;5071249;28;20666;-60
2022/04/19 02:35:39;;;;;;;11.50;5.07;;;6.50;99.90;;;;;;5070979;28;20209;-60
2022/04/19 02:38:06;;;;;;;9.67;5.03;;;6.40;99.90;;;;;;5070712;28;20467;-60
2022/04/19 02:40:33;;;;;;;8.97;5.03;;;6.40;99.90;;;;;;5070782;28;20233;-60
2022/04/19 02:43:00;;;;;;;8.10;4.97;;;6.40;99.90;;;;;;5071208;28;20837;-60
2022/04/19 02:45:26;;;;;;;10.10;5.23;;;6.30;99.90;;;;;;5070576;28;20945;-61
2022/04/19 02:48:05;;;;;;;7.30;4.90;;;6.30;99.90;;;;;;5070710;28;20290;-60
2022/04/19 02:50:33;;;;;;;7.77;4.80;;;6.30;99.90;;;;;;5070884;28;20209;-57
2022/04/19 02:53:00;;;;;;;10.67;5.93;;;6.20;99.90;;;;;;5071108;28;20263;-60
2022/04/19 02:55:28;;;;;;;9.33;5.37;;;6.20;99.90;;;;;;5071078;28;20447;-60
2022/04/19 02:57:55;;;;;;;8.47;4.90;;;6.10;99.90;;;;;;5070570;28;20471;-60
2022/04/19 03:00:22;;;;;;;11.87;5.10;;;6.10;99.90;;;;;;5073519;28;20714;-60
2022/04/19 03:02:49;;;;;;;10.03;5.07;;;6.10;99.90;;;;;;5074561;28;20483;-60
2022/04/19 03:05:18;;;;;;;10.33;5.83;;;6.00;99.90;;;;;;5074553;28;20455;-60
2022/04/19 03:07:45;;;;;;;11.50;6.20;;;6.00;99.90;;;;;;5074212;28;20470;-59
2022/04/19 03:10:12;;;;;;;9.60;5.70;;;6.00;99.90;;;;;;5074536;28;20796;-60
2022/04/19 03:12:39;;;;;;;10.43;5.60;;;5.90;99.90;;;;;;5074365;28;20447;-60
2022/04/19 03:15:07;;;;;;;12.87;5.87;;;5.90;99.90;;;;;;5074744;28;20454;-60
2022/04/19 03:17:34;;;;;;;11.90;6.17;;;5.90;99.90;;;;;;5073858;28;20534;-60
2022/04/19 03:20:01;;;;;;;12.47;6.37;;;5.80;99.90;;;;;;5074271;28;20451;-60
2022/04/19 03:27:41;;;;;;;9.90;6.07;;;5.80;99.90;;;;;;5074307;28;20459;-60
2022/04/19 03:28:00;;;;;;;12.00;6.47;;;5.70;99.90;;;;;;5073990;28;20525;-58
2022/04/19 03:30:27;;;;;;;10.13;5.70;;;5.70;99.90;;;;;;5073984;28;20448;-59
2022/04/19 03:32:54;;;;;;;13.40;6.40;;;5.60;99.90;;;;;;5074449;28;20496;-60
2022/04/19 03:35:21;;;;;;;10.73;6.93;;;5.60;99.90;;;;;;5074046;28;20447;-59
2022/04/19 03:37:49;;;;;;;16.33;7.07;;;5.60;99.90;;;;;;5073830;28;20599;-59
2022/04/19 03:40:16;;;;;;;10.73;6.67;;;5.60;99.90;;;;;;5074022;28;20524;-61
2022/04/19 03:42:43;;;;;;;10.20;6.77;;;5.50;1.00;;;;;;5073952;28;20455;-60
2022/04/19 03:45:11;;;;;;;10.50;6.67;;;5.50;1.00;;;;;;5073827;28;20455;-60
2022/04/19 03:47:38;;;;;;;14.77;8.33;;;5.50;1.00;;;;;;5073641;28;20467;-60
2022/04/19 03:50:06;;;;;;;12.60;7.33;;;5.40;1.00;;;;;;5073830;28;20455;-59
2022/04/19 03:52:34;;;;;;;14.70;8.50;;;5.30;99.90;;;;;;5073714;28;20528;-60
2022/04/19 03:55:02;;;;;;;15.23;7.37;;;5.30;99.90;;;;;;5073812;28;20946;-59
2022/04/19 03:57:29;;;;;;;15.00;8.90;;;5.30;99.90;;;;;;5072768;28;20447;-60
2022/04/19 03:59:56;;;;;;;13.37;8.23;;;5.30;99.90;;;;;;5074049;28;20443;-60
2022/04/19 04:02:22;;;;;;;12.43;7.50;;;5.30;99.90;;;;;;5073553;28;20501;-60
2022/04/19 04:04:49;;;;;;;13.77;7.63;;;5.30;99.90;;;;;;5073576;28;20482;-60
2022/04/19 04:07:16;;;;;;;11.47;7.63;;;5.30;99.90;;;;;;5073375;28;20447;-61
2022/04/19 04:09:42;;;;;;;12.60;7.90;;;5.30;99.90;;;;;;5073047;28;20504;-61
2022/04/19 04:12:12;;;;;;;13.13;8.00;;;5.20;99.90;;;;;;5073347;28;20459;-60
2022/04/19 04:14:39;;;;;;;10.13;6.77;;;5.20;99.90;;;;;;5073472;28;20445;-60
2022/04/19 04:17:06;;;;;;;14.50;7.37;;;5.20;99.90;;;;;;5073105;28;20538;-61
2022/04/19 04:19:33;;;;;;;9.90;7.30;;;5.20;99.90;;;;;;5072884;28;20471;-60
2022/04/19 04:22:00;;;;;;;11.03;7.13;;;5.20;99.90;;;;;;5073353;28;20458;-60
2022/04/19 04:24:27;;;;;;;13.73;7.13;;;5.20;99.90;;;;;;5072828;28;20516;-60
2022/04/19 04:26:54;;;;;;;9.53;6.57;;;5.20;99.90;;;;;;5073003;28;20451;-60
2022/04/19 04:29:22;;;;;;;11.60;6.73;;;5.20;99.90;;;;;;5073417;28;20467;-59
2022/04/19 04:31:49;;;;;;;11.50;6.83;;;5.20;99.90;;;;;;5073005;28;20485;-58
2022/04/19 04:34:16;;;;;;;10.23;6.20;;;5.20;99.90;;;;;;5073054;28;20473;-56
2022/04/19 04:36:42;;;;;;;14.20;6.37;;;5.30;99.90;;;;;;5072542;28;20451;-58
2022/04/19 04:39:09;;;;;;;7.97;5.83;;;5.30;99.90;;;;;;5072627;28;20505;-58
2022/04/19 04:41:36;;;;;;;9.27;6.40;;;5.20;99.90;;;;;;5072425;28;20451;-60
2022/04/19 04:44:02;;;;;;;8.13;5.80;;;5.20;99.90;;;;;;5071076;28;20487;-57
2022/04/19 04:51:58;;;;;;;8.63;5.80;;;5.30;99.90;;;;;;5072180;28;20476;-58
2022/04/19 04:54:25;;;;;;;9.27;6.07;;;5.30;99.90;;;;;;5072291;28;20471;-60
2022/04/19 04:56:52;;;;;;;9.60;6.07;;;5.30;99.90;;;;;;5072171;28;20489;-61
2022/04/19 04:59:19;;;;;;;8.63;5.60;;;5.30;99.90;;;;;;5072042;28;20529;-59
2022/04/19 05:01:47;;;;;;;8.60;5.60;;;5.30;99.90;;;;;;5072545;28;20443;-60
2022/04/19 05:04:14;;;;;;;9.40;6.00;;;5.20;99.90;;;;;;5072033;28;20486;-58
2022/04/19 05:06:41;;;;;;;10.10;6.53;;;5.20;99.90;;;;;;5071879;28;20451;-60
2022/04/19 05:09:07;;;;;;;12.23;6.90;;;5.10;99.90;;;;;;5071844;28;20467;-60
2022/04/19 05:11:34;;;;;;;12.43;5.63;;;5.10;1.00;;;;;;5072096;28;20500;-61
2022/04/19 05:14:01;;;;;;;8.93;5.60;;;5.10;1.00;;;;;;5071824;28;20497;-61
2022/04/19 05:16:28;;;;;;;7.90;5.43;;;5.20;1.00;;;;;;5071220;28;20447;-61
2022/04/19 05:18:56;;;;;;;9.03;5.80;;;5.20;1.00;;;;;;5071844;28;21019;-61
2022/04/19 05:21:23;;;;;;;10.77;5.90;;;5.40;1.00;;;;;;5071650;28;20455;-64
2022/04/19 05:23:50;;;;;;;8.27;5.60;;;5.50;99.90;;;;;;5059609;28;20532;-62
2022/04/19 05:26:16;;;;;;;9.50;5.63;;;5.60;99.90;;;;;;5070921;28;20451;-61
2022/04/19 05:28:43;;;;;;;14.57;6.50;;;5.70;99.90;;;;;;5070994;28;20536;-62
2022/04/19 05:31:10;;;;;;;12.90;6.53;;;5.80;99.90;;;;;;5071392;28;20929;-62
2022/04/19 05:33:36;;;;;;;11.33;6.23;;;5.80;99.90;;;;;;5070949;28;20447;-62
2022/04/19 05:36:05;;;;;;;9.07;6.03;;;5.90;60.30;;;;;;5071161;28;20459;-62
2022/04/19 05:38:32;;;;;;;10.50;6.33;;;6.00;21.80;;;;;;5071604;28;20472;-61
2022/04/19 05:40:58;;;;;;;10.40;5.90;;;6.00;10.60;;;;;;5073389;28;20455;-63
2022/04/19 05:43:25;;;;;;;10.17;6.33;;;6.10;1.00;;;;;;5074604;28;20319;-61
2022/04/19 05:45:52;;;;;;;12.17;6.77;;;6.10;1.00;;;;;;5073119;28;20508;-64
2022/04/19 05:48:19;;;;;;;18.00;7.17;;;6.20;1.00;;;;;;5070833;28;20642;-64
2022/04/19 05:50:45;;;;;;;9.93;6.83;;;6.30;1.00;;;;;;5071237;28;20567;-63
2022/04/19 05:53:13;;;;;;;11.87;6.70;;;6.30;1.00;;;;;;5070945;28;20548;-63
2022/04/19 05:55:40;;;;;;;10.30;6.57;;;6.40;1.00;;;;;;5071182;28;20588;-62
2022/04/19 05:58:07;;;;;;;11.57;7.13;;;6.50;1.00;;;;;;5070638;28;20467;-63
2022/04/19 06:00:34;;;;;;;11.97;6.73;;;6.60;1.00;;;;;;5071249;28;20501;-66
2022/04/19 06:05:45;;;;;;;11.33;6.67;;;6.90;1.00;;;;;;5070837;28;20467;-63
2022/04/19 06:08:14;;;;;;;10.60;6.33;;;7.10;1.00;;;;;;5070851;28;20474;-63
2022/04/19 06:10:41;;;;;;;10.83;6.83;;;7.20;99.90;;;;;;5070527;28;20460;-65
2022/04/19 06:13:08;;;;;;;11.47;6.70;;;7.40;99.90;;;;;;5071469;28;20205;-64
2022/04/19 06:15:35;;;;;;;10.27;5.97;;;7.60;99.90;;;;;;5071127;28;20213;-63
2022/04/19 06:18:01;;;;;;;12.23;6.50;;;7.80;99.90;;;;;;5070583;28;20738;-61
2022/04/19 06:20:28;;;;;;;11.90;7.17;;;7.90;99.90;;;;;;5070857;28;20217;-61
2022/04/19 06:22:55;;;;;;;12.10;7.87;;;8.00;99.90;;;;;;5070913;28;20228;-64
2022/04/19 06:25:23;;;;;;;11.80;7.70;;;8.20;99.90;;;;;;5070537;28;20225;-60
2022/04/19 06:27:50;;;;;;;14.17;7.93;;;8.30;99.90;;;;;;5070683;28;20226;-61
2022/04/19 06:30:17;;;;;;;13.00;7.40;;;8.40;99.90;;;;;;5071386;28;20217;-62
2022/04/19 06:32:45;;;;;;;12.70;7.13;;;8.50;99.90;;;;;;5071061;28;20210;-62
2022/04/19 06:35:12;;;;;;;12.17;7.87;;;8.60;99.90;;;;;;5073121;28;20205;-61
2022/04/19 06:37:38;;;;;;;15.30;7.77;;;8.70;99.90;;;;;;5074555;28;20277;-60
2022/04/19 06:40:07;;;;;;;13.10;8.17;;;8.80;99.90;;;;;;5074606;28;20699;-64
2022/04/19 06:42:35;;;;;;;10.80;7.13;;;8.90;99.90;;;;;;5074861;28;20234;-61
2022/04/19 06:45:02;;;;;;;13.03;9.03;;;8.90;99.90;;;;;;5074220;28;20576;-62
2022/04/19 06:47:29;;;;;;;14.27;8.43;;;9.10;99.90;;;;;;5074534;28;20261;-61
2022/04/19 06:49:57;;;;;;;15.93;8.20;;;9.10;99.90;;;;;;5074433;28;20211;-62
2022/04/19 06:52:25;;;;;;;12.23;7.30;;;9.10;99.90;;;;;;5074545;28;20298;-62
2022/04/19 06:54:51;;;;;;;14.30;8.87;;;9.20;99.90;;;;;;5074756;28;20211;-62
2022/04/19 06:57:18;;;;;;;13.77;8.80;;;9.30;99.90;;;;;;5074471;28;20231;-61
2022/04/19 06:59:46;;;;;;;13.47;7.70;;;9.40;99.90;;;;;;5074530;28;20211;-58
2022/04/19 07:02:13;;;;;;;12.63;8.33;;;9.50;99.90;;;;;;5074314;28;20266;-65
2022/04/19 07:04:41;;;;;;;15.30;8.83;;;9.60;99.90;;;;;;5074018;28;20651;-63
2022/04/19 07:07:08;;;;;;;13.27;7.77;;;9.60;99.90;;;;;;5074013;28;20247;-63
2022/04/19 07:09:35;;;;;;;14.23;8.90;;;9.70;99.90;;;;;;5073976;28;20221;-63
2022/04/19 07:12:01;;;;;;;11.97;7.73;;;9.90;99.90;;;;;;5074464;28;20685;-63
2022/04/19 07:14:28;;;;;;;14.50;8.53;;;10.10;99.90;;;;;;5073859;28;20201;-62
2022/04/19 07:16:58;;;;;;;13.60;8.10;;;10.20;99.90;;;;;;5074417;28;20297;-61
2022/04/19 07:19:24;;;;;;;12.27;7.57;;;10.30;93.80;;;;;;5073281;28;20265;-64
2022/04/19 07:27:23;;;;;;;11.00;7.60;;;10.70;80.40;;;;;;5073469;28;20200;-64
2022/04/19 07:29:49;;;;;;;13.67;8.20;;;10.90;88.80;;;;;;5073992;28;20320;-64
2022/04/19 07:32:18;;;;;;;13.03;7.00;;;11.10;85.70;;;;;;5073286;28;20213;-64
2022/04/19 07:34:44;;;;;;;8.07;5.73;;;11.40;69.80;;;;;;5073713;28;20288;-61
2022/04/19 07:37:11;;;;;;;10.67;7.43;;;11.50;61.10;;;;;;5073756;28;20254;-63
2022/04/19 07:39:38;;;;;;;10.60;6.97;;;11.60;60.00;;;;;;5073365;28;20247;-64
2022/04/19 07:42:05;;;;;;;10.33;6.40;;;11.60;57.10;;;;;;5073937;28;20214;-63
2022/04/19 07:44:32;;;;;;;12.73;6.77;;;11.80;63.80;;;;;;5072699;28;20283;-64
2022/04/19 07:46:59;;;;;;;10.73;6.37;;;11.90;61.40;;;;;;5072991;28;20671;-64
2022/04/19 07:49:27;;;;;;;9.93;6.60;;;12.10;54.00;;;;;;5073509;28;20293;-63
2022/04/19 07:51:54;;;;;;;11.10;6.27;;;12.10;50.50;;;;;;5073611;28;20216;-62
2022/04/19 07:54:22;;;;;;;10.17;5.40;;;12.00;46.50;;;;;;5073389;28;20296;-62
2022/04/19 07:56:48;;;;;;;12.07;6.20;;;12.10;42.10;;;;;;5072885;28;20207;-62
2022/04/19 07:59:15;;;;;;;12.63;7.83;;;12.10;47.90;;;;;;5073389;28;20240;-62
2022/04/19 08:01:42;;;;;;;10.20;6.10;;;12.40;48.80;;;;;;5072976;28;20683;-62
2022/04/19 08:04:08;;;;;;;9.10;6.03;;;12.40;46.90;;;;;;5073091;28;20208;-61
2022/04/19 08:06:36;;;;;;;12.00;6.97;;;12.50;39.00;;;;;;5072986;28;20633;-62
2022/04/19 08:09:03;;;;;;;10.87;6.60;;;12.40;42.50;;;;;;5073042;28;20228;-60
2022/04/19 08:11:30;;;;;;;10.07;6.60;;;12.50;39.90;;;;;;5056857;28;20235;-61
2022/04/19 08:13:57;;;;;;;13.27;6.47;;;12.60;41.70;;;;;;5052673;28;20230;-60
2022/04/19 08:16:23;;;;;;;13.43;7.00;;;12.60;41.20;;;;;;5053051;28;20205;-64
2022/04/19 08:18:50;;;;;;;9.90;6.40;;;12.80;45.90;;;;;;5052881;28;20229;-64
2022/04/19 08:21:17;;;;;;;10.80;6.60;;;13.00;49.50;;;;;;5071402;28;20213;-64
2022/04/19 08:23:45;;;;;;;9.17;4.90;;;13.20;52.10;;;;;;5072762;28;20209;-65
2022/04/19 08:26:11;;;;;;;10.23;6.57;;;13.10;38.40;;;;;;5072255;28;20274;-61
2022/04/19 08:28:38;;;;;;;7.87;6.10;;;13.20;45.40;;;;;;5073110;28;20281;-63
2022/04/19 08:31:05;;;;;;;11.27;6.47;;;13.30;36.00;;;;;;5073009;28;20211;-62
2022/04/19 08:33:32;;;;;;;10.63;6.93;;;13.20;36.70;;;;;;5072956;28;20189;-62
2022/04/19 08:36:00;;;;;;;9.03;5.77;;;13.40;38.40;;;;;;5072405;28;20643;-63
2022/04/19 08:38:27;;;;;;;10.23;6.27;;;13.40;37.70;;;;;;5072537;28;20634;-62
2022/04/19 08:40:55;;;;;;;10.83;6.30;;;13.50;36.30;;;;;;5072649;28;20341;-64
2022/04/19 08:43:22;;;;;;;9.33;6.20;;;13.50;37.10;;;;;;5071902;28;20213;-63
2022/04/19 08:45:49;;;;;;;11.30;5.53;;;13.80;41.00;;;;;;5072241;28;20221;-69
2022/04/19 08:48:16;;;;;;;11.10;5.90;;;14.00;42.60;;;;;;5072047;28;20283;-62
2022/04/19 08:50:45;;;;;;;8.67;6.03;;;14.20;40.10;;;;;;5071798;28;20203;-60
2022/04/19 08:58:42;;;;;;;7.03;5.47;;;14.40;47.10;;;;;;5071523;28;20302;-61
2022/04/19 09:01:09;;;;;;;7.53;5.33;;;14.30;40.20;;;;;;5071783;28;20617;-63
2022/04/19 09:03:38;;;;;;;32.70;19.87;;;14.20;36.80;;;;;;5071625;28;20296;-61
2022/04/19 09:06:05;;;;;;;5.93;4.73;;;14.20;37.10;;;;;;5071797;28;20233;-63
2022/04/19 09:08:31;;;;;;;8.43;5.63;;;14.50;44.30;;;;;;5071763;28;20225;-62
2022/04/19 09:11:08;;;;;;;7.27;4.63;;;14.60;40.00;;;;;;5072231;28;20203;-63
2022/04/19 09:13:35;;;;;;;5.50;4.60;;;14.80;37.20;;;;;;5071037;28;20682;-63
2022/04/19 09:16:06;;;;;;;7.27;4.53;;;14.70;40.90;;;;;;5071503;28;20697;-64
2022/04/19 09:18:36;;;;;;;6.23;4.47;;;14.70;38.50;;;;;;5071415;28;20311;-63
2022/04/19 09:21:04;;;;;;;6.73;5.07;;;14.90;40.00;;;;;;5071616;28;20300;-62
2022/04/19 09:23:33;;;;;;;8.03;4.53;;;14.70;37.00;;;;;;5071616;28;20211;-63
2022/04/19 09:26:01;;;;;;;6.07;3.77;;;14.90;60.60;;;;;;5070767;28;20223;-63
2022/04/19 09:28:31;;;;;;;8.77;4.40;;;15.20;45.90;;;;;;5071681;28;20240;-63
2022/04/19 09:30:59;;;;;;;5.57;3.83;;;15.30;45.20;;;;;;5071560;28;20276;-62
2022/04/19 09:33:28;;;;;;;7.40;3.60;;;15.40;48.10;;;;;;5071529;28;20605;-64
2022/04/19 09:35:56;;;;;;;6.00;3.80;;;15.40;46.00;;;;;;5071349;28;20211;-61
2022/04/19 09:38:36;;;;;;;5.23;3.50;;;15.50;49.80;;;;;;5070135;28;20326;-62
2022/04/19 09:41:03;;;;;;;5.30;3.53;;;15.60;47.10;;;;;;5071344;28;20259;-62
2022/04/19 09:43:32;;;;;;;5.70;4.30;;;15.60;44.40;;;;;;5070759;28;20619;-63
2022/04/19 09:46:03;;;;;;;5.43;3.80;;;15.70;48.30;;;;;;5071149;28;20286;-62
2022/04/19 09:48:30;;;;;;;6.60;3.70;;;15.60;46.90;;;;;;5071121;28;20225;-62
2022/04/19 09:51:02;;;;;;;6.10;3.17;;;15.60;42.70;;;;;;5071143;28;20219;-62
2022/04/19 09:53:31;;;;;;;4.53;3.20;;;15.50;56.70;;;;;;5071085;28;20235;-62
2022/04/19 09:55:59;;;;;;;7.37;5.07;;;15.50;44.90;;;;;;5070778;28;20265;-62
2022/04/19 09:58:27;;;;;;;4.80;3.60;;;15.40;39.40;;;;;;5071924;28;20232;-64
2022/04/19 10:00:55;;;;;;;5.23;3.77;;;15.30;39.40;;;;;;5070909;28;20258;-60
2022/04/19 10:08:59;;;;;;;4.77;3.50;;;15.40;39.40;;;;;;5071313;28;20601;-67
2022/04/19 10:11:28;;;;;;;4.23;3.30;;;15.40;42.10;;;;;;5071781;28;20240;-61
2022/04/19 10:13:55;;;;;;;3.83;2.73;;;15.40;39.80;;;;;;5070354;28;20239;-67
2022/04/19 10:16:24;;;;;;;4.87;3.50;;;15.30;36.20;;;;;;5070567;28;20236;-67
2022/04/19 10:18:51;;;;;;;6.30;3.77;;;15.50;41.10;;;;;;5070261;28;20236;-64
2022/04/19 10:21:20;;;;;;;5.47;4.00;;;15.70;46.40;;;;;;5071099;28;20213;-62
2022/04/19 10:23:47;;;;;;;5.63;3.83;;;15.80;46.50;;;;;;5070278;28;20291;-60
2022/04/19 10:26:16;;;;;;;5.10;3.73;;;16.00;52.10;;;;;;5070185;28;20249;-61
2022/04/19 10:28:45;;;;;;;8.73;3.90;;;16.20;49.10;;;;;;5070826;28;20232;-62
2022/04/19 10:31:12;;;;;;;9.67;4.53;;;16.40;51.20;;;;;;5070268;28;20278;-62
2022/04/19 10:33:51;;;;;;;7.90;4.13;;;16.30;46.90;;;;;;5070552;28;20556;-62
2022/04/19 10:36:21;;;;;;;6.37;3.83;;;16.20;50.80;;;;;;5070089;28;20612;-61
2022/04/19 10:39:24;;;;;;;4.50;2.90;;;16.20;45.80;;;;;;5070256;28;20221;-62
2022/04/19 10:41:58;;;;;;;6.93;4.10;;;16.20;44.20;;;;;;5070554;28;20204;-62
2022/04/19 10:44:30;;;;;;;11.37;5.77;;;16.00;40.20;;;;;;5069909;28;20222;-62
2022/04/19 10:47:11;;;;;;;6.83;4.80;;;15.90;42.20;;;;;;5070400;28;20224;-63
2022/04/19 10:50:03;;;;;;;6.83;4.57;;;16.00;40.90;;;;;;5069889;28;20225;-63
2022/04/19 10:52:46;;;;;;;9.33;4.87;;;16.00;43.00;;;;;;5070591;28;20213;-62
2022/04/19 10:55:22;;;;;;;9.83;4.00;;;16.00;44.10;;;;;;5069921;28;20643;-63
2022/04/19 11:00:46;;;;;;;6.80;4.23;;;16.40;46.90;;;;;;5070266;28;20207;-64
2022/04/19 11:03:15;;;;;;;7.10;4.43;;;16.70;51.00;;;;;;5070434;28;20207;-67
2022/04/19 11:05:44;;;;;;;7.23;4.47;;;16.70;49.40;;;;;;5070044;28;20225;-62
2022/04/19 11:08:44;;;;;;;5.77;4.07;;;16.90;54.60;;;;;;5070214;28;20314;-63
2022/04/19 11:11:26;;;;;;;7.43;4.73;;;17.10;57.40;;;;;;5070426;28;20204;-62
2022/04/19 11:14:21;;;;;;;13.37;5.70;;;16.90;52.20;;;;;;5070271;28;20201;-62
2022/04/19 11:16:50;;;;;;;6.83;4.20;;;17.10;55.10;;;;;;5047322;28;20212;-62
2022/04/19 11:19:18;;;;;;;8.17;5.10;;;17.10;51.50;;;;;;5070034;28;20247;-63
2022/04/19 11:21:58;;;;;;;8.10;4.87;;;16.70;45.30;;;;;;5073698;28;20209;-62
2022/04/19 11:24:59;;;;;;;8.47;4.90;;;16.70;46.90;;;;;;5073096;28;20209;-62
2022/04/19 11:27:59;;;;;;;7.67;4.47;;;16.70;51.00;;;;;;5073512;28;20215;-64
2022/04/19 11:30:27;;;;;;;9.00;4.57;;;16.60;44.70;;;;;;5074101;28;20209;-64
2022/04/19 11:32:55;;;;;;;9.13;4.70;;;16.80;51.30;;;;;;5073868;28;20201;-64
2022/04/19 11:35:23;;;;;;;8.07;4.17;;;16.90;50.90;;;;;;5073672;28;20570;-63
2022/04/19 11:37:51;;;;;;;7.03;4.20;;;17.10;52.10;;;;;;5073484;28;20228;-64
2022/04/19 11:48:39;;;;;;;8.03;4.07;;;16.70;42.10;;;;;;5073224;28;20223;-62
2022/04/19 11:51:10;;;;;;;8.50;4.43;;;16.70;43.80;;;;;;5073790;28;20216;-62
2022/04/19 11:53:38;;;;;;;6.37;4.20;;;16.80;44.00;;;;;;5072947;28;20292;-63
2022/04/19 11:56:06;;;;;;;7.87;4.67;;;16.90;46.40;;;;;;5072844;28;20315;-63
2022/04/19 11:58:33;;;;;;;6.03;4.57;;;17.00;48.40;;;;;;5073143;28;20225;-63
2022/04/19 12:01:03;;;;;;;7.40;4.53;;;17.10;49.30;;;;;;5073339;28;20236;-64
2022/04/19 12:03:31;;;;;;;7.33;5.07;;;17.10;48.40;;;;;;5073074;28;20278;-62
2022/04/19 12:06:07;;;;;;;7.47;4.73;;;16.90;48.60;;;;;;5072351;28;20225;-63
2022/04/19 12:08:37;;;;;;;7.97;4.87;;;17.20;54.10;;;;;;5073426;28;20232;-63
2022/04/19 12:11:06;;;;;;;7.43;4.23;;;17.40;57.90;;;;;;5072663;28;20240;-63
2022/04/19 12:13:33;;;;;;;6.97;4.47;;;17.30;50.30;;;;;;5073038;28;20212;-64
2022/04/19 12:16:03;;;;;;;6.20;4.27;;;17.40;54.60;;;;;;5072993;28;20205;-64
2022/04/19 12:18:31;;;;;;;5.53;3.77;;;17.50;52.80;;;;;;5072227;28;20266;-64
2022/04/19 12:20:58;;;;;;;7.73;4.73;;;17.60;53.10;;;;;;5073077;28;20259;-62
2022/04/19 12:23:25;;;;;;;6.73;4.83;;;17.70;54.90;;;;;;5072774;28;20209;-63
2022/04/19 12:26:03;;;;;;;6.47;4.57;;;17.30;52.20;;;;;;5072531;28;20294;-63
2022/04/19 12:28:42;;;;;;;7.73;4.20;;;17.30;48.60;;;;;;5073219;28;20228;-64
2022/04/19 12:31:27;;;;;;;5.07;3.73;;;17.40;57.40;;;;;;5072874;28;20296;-63
2022/04/19 12:33:54;;;;;;;7.53;4.50;;;17.60;57.00;;;;;;5072561;28;20318;-62
2022/04/19 12:36:22;;;;;;;6.93;4.77;;;17.60;56.00;;;;;;5072107;28;20259;-62
2022/04/19 12:38:59;;;;;;;7.10;4.90;;;17.50;52.60;;;;;;5072411;28;20221;-60
2022/04/19 12:41:38;;;;;;;6.80;4.60;;;17.50;58.60;;;;;;5072605;28;20226;-63
2022/04/19 12:44:09;;;;;;;7.00;4.57;;;17.40;53.10;;;;;;5072547;28;20204;-63
2022/04/19 12:46:43;;;;;;;7.80;4.57;;;17.60;78.10;;;;;;5071366;28;20225;-63
2022/04/19 12:49:20;;;;;;;7.17;5.00;;;17.70;60.80;;;;;;5072082;28;20235;-63
2022/04/19 12:51:58;;;;;;;6.30;5.00;;;17.40;53.60;;;;;;5072169;28;20636;-62
2022/04/19 12:54:27;;;;;;;6.23;4.30;;;17.00;51.60;;;;;;5071835;28;20208;-64
2022/04/19 12:56:58;;;;;;;7.47;4.83;;;17.10;52.40;;;;;;5072011;28;20269;-64
2022/04/19 12:59:26;;;;;;;8.53;5.00;;;17.20;51.70;;;;;;5071960;28;20233;-66
2022/04/19 13:01:52;;;;;;;7.83;4.73;;;17.40;57.20;;;;;;5072255;28;20212;-63
2022/04/19 13:04:19;;;;;;;7.93;5.00;;;17.30;52.90;;;;;;5071775;28;20215;-63
2022/04/19 13:12:22;;;;;;;5.70;4.10;;;17.10;51.10;;;;;;5071552;28;20281;-64
2022/04/19 13:14:52;;;;;;;8.40;5.17;;;17.40;58.90;;;;;;5071468;28;20674;-64
2022/04/19 13:17:19;;;;;;;5.70;4.67;;;17.40;56.90;;;;;;5071411;28;20262;-64
2022/04/19 13:19:46;;;;;;;6.07;4.17;;;17.40;55.10;;;;;;5071656;28;20204;-63
2022/04/19 13:22:13;;;;;;;4.20;3.50;;;17.40;52.50;;;;;;5071962;28;20307;-63
2022/04/19 13:24:41;;;;;;;5.50;4.53;;;17.20;51.50;;;;;;5071143;28;20211;-64
2022/04/19 13:27:09;;;;;;;5.60;4.17;;;17.10;51.70;;;;;;5070096;28;20233;-62
2022/04/19 13:29:37;;;;;;;8.73;4.30;;;17.30;64.40;;;;;;5071188;28;20299;-62
2022/04/19 13:32:06;;;;;;;6.10;4.00;;;17.40;50.90;;;;;;5071417;28;20210;-64
2022/04/19 13:34:33;;;;;;;4.40;4.00;;;17.40;53.30;;;;;;5071013;28;20612;-61
2022/04/19 13:37:01;;;;;;;5.60;3.87;;;17.20;49.00;;;;;;5070887;28;20613;-63
2022/04/19 13:39:28;;;;;;;5.70;3.93;;;17.40;52.40;;;;;;5071407;28;20233;-63
2022/04/19 13:41:55;;;;;;;7.47;4.20;;;17.60;70.20;;;;;;5070624;28;20300;-62